Time;durP1;ratioP1;P1;durP2;ratioP2;P2;SDS_P1;SDS_P2;PMS_P1;PMS_P2;Temp;Humidity;BMP_temperature;BMP_pressure;BME280_temperature;BME280_humidity;BME280_pressure;Samples;Min_cycle;Max_cycle;Signal;HPM_P1;HPM_P2
2023/05/04 00:00:18;;;;;;;1.90;1.70;;;15.20;57.50;;;;;;5011501;28;20493;-83
2023/05/04 00:02:45;;;;;;;1.87;1.50;;;15.30;58.00;;;;;;5008716;28;20530;-82
2023/05/04 00:05:13;;;;;;;1.83;1.73;;;15.20;57.90;;;;;;4997257;28;20447;-81
2023/05/04 00:07:42;;;;;;;1.77;1.67;;;15.20;58.10;;;;;;5000566;28;20561;-81
2023/05/04 00:10:09;;;;;;;1.77;1.67;;;15.30;57.40;;;;;;5015985;28;20470;-82
2023/05/04 00:12:37;;;;;;;1.90;1.80;;;15.30;56.80;;;;;;5015803;28;20529;-84
2023/05/04 00:15:05;;;;;;;2.33;1.70;;;15.40;56.50;;;;;;5016424;28;20478;-81
2023/05/04 00:17:32;;;;;;;2.30;1.63;;;15.30;56.30;;;;;;5022489;28;20484;-82
2023/05/04 00:19:59;;;;;;;1.90;1.77;;;15.20;56.20;;;;;;5021104;28;20550;-83
2023/05/04 00:22:27;;;;;;;1.73;1.63;;;15.00;56.50;;;;;;5019651;28;20459;-82
2023/05/04 00:24:54;;;;;;;1.50;1.40;;;14.80;56.90;;;;;;5018653;28;20457;-81
2023/05/04 00:27:21;;;;;;;1.53;1.30;;;14.70;57.50;;;;;;5019318;28;20463;-83
2023/05/04 00:29:48;;;;;;;2.10;1.90;;;14.70;57.90;;;;;;5018906;28;20463;-84
2023/05/04 00:32:16;;;;;;;1.83;1.70;;;14.60;57.90;;;;;;5009657;28;20462;-82
2023/05/04 00:34:43;;;;;;;1.60;1.50;;;14.80;57.70;;;;;;5001905;28;20457;-82
2023/05/04 00:37:23;;;;;;;2.07;1.60;;;14.70;57.30;;;;;;4992675;28;20453;-80
2023/05/04 00:39:50;;;;;;;1.87;1.77;;;14.60;57.80;;;;;;5003744;28;20512;-83
2023/05/04 00:42:18;;;;;;;3.27;1.50;;;14.50;58.40;;;;;;4986717;28;20459;-83
2023/05/04 00:44:45;;;;;;;1.63;1.53;;;14.50;59.00;;;;;;4986284;28;20479;-83
2023/05/04 00:47:12;;;;;;;1.73;1.47;;;14.50;59.50;;;;;;4992474;28;20998;-82
2023/05/04 00:49:40;;;;;;;1.57;1.47;;;14.50;60.40;;;;;;4988292;28;20567;-83
2023/05/04 00:52:13;;;;;;;1.80;1.70;;;14.50;59.70;;;;;;4987103;28;20485;-83
2023/05/04 00:54:43;;;;;;;4.30;1.90;;;14.50;59.40;;;;;;4985002;28;20451;-83
2023/05/04 00:57:11;;;;;;;1.60;1.50;;;14.40;59.40;;;;;;4996835;28;20455;-82
2023/05/04 00:59:38;;;;;;;1.80;1.70;;;14.50;59.30;;;;;;4988047;28;20592;-81
2023/05/04 01:02:06;;;;;;;1.77;1.50;;;14.50;58.80;;;;;;4983234;28;20458;-83
2023/05/04 01:04:33;;;;;;;2.93;1.83;;;14.40;58.50;;;;;;4988862;28;20462;-82
2023/05/04 01:07:26;;;;;;;2.07;1.73;;;14.30;58.70;;;;;;4989952;28;20765;-82
2023/05/04 01:10:06;;;;;;;1.90;1.80;;;14.30;59.20;;;;;;4988519;28;20487;-82
2023/05/04 01:12:39;;;;;;;1.77;1.67;;;14.30;59.50;;;;;;4989194;28;20597;-82
2023/05/04 01:15:08;;;;;;;1.70;1.60;;;14.40;59.80;;;;;;4989713;28;20561;-83
2023/05/04 01:17:35;;;;;;;2.20;1.90;;;14.40;59.60;;;;;;5004734;28;20541;-84
2023/05/04 01:20:02;;;;;;;2.37;2.17;;;14.60;59.00;;;;;;5007286;28;20487;-83
2023/05/04 01:22:30;;;;;;;1.50;1.30;;;14.50;59.10;;;;;;4992841;28;20761;-82
2023/05/04 01:24:57;;;;;;;1.77;1.67;;;14.40;59.20;;;;;;4987271;28;20463;-81
2023/05/04 01:27:49;;;;;;;4.13;1.50;;;14.30;59.10;;;;;;4991609;28;20474;-84
2023/05/04 01:30:34;;;;;;;1.83;1.73;;;14.20;59.40;;;;;;4984184;28;20573;-83
2023/05/04 01:33:03;;;;;;;2.80;1.43;;;14.10;59.20;;;;;;4988236;28;20485;-84
2023/05/04 01:35:30;;;;;;;1.70;1.60;;;14.00;59.60;;;;;;4987173;28;20539;-83
2023/05/04 01:37:58;;;;;;;1.20;1.10;;;13.90;59.70;;;;;;4986870;28;20459;-83
2023/05/04 01:40:25;;;;;;;1.80;1.70;;;14.00;60.00;;;;;;4986686;28;20478;-82
2023/05/04 01:42:56;;;;;;;2.10;1.60;;;14.00;60.00;;;;;;5003128;28;20466;-84
2023/05/04 01:45:23;;;;;;;1.50;1.40;;;14.10;59.70;;;;;;4994936;28;20541;-82
2023/05/04 01:47:50;;;;;;;2.00;1.80;;;14.10;59.70;;;;;;5008117;28;20545;-82
2023/05/04 01:50:18;;;;;;;1.60;1.50;;;14.00;59.70;;;;;;5002644;28;20482;-82
2023/05/04 01:52:44;;;;;;;1.77;1.40;;;14.00;60.00;;;;;;5013598;28;20482;-83
2023/05/04 01:55:15;;;;;;;3.50;1.67;;;13.80;59.70;;;;;;5008334;28;20451;-81
2023/05/04 01:57:42;;;;;;;1.70;1.57;;;13.70;59.90;;;;;;5008612;28;20650;-81
2023/05/04 02:00:13;;;;;;;3.07;1.50;;;13.60;60.40;;;;;;4994301;28;20540;-81
2023/05/04 02:02:40;;;;;;;1.60;1.40;;;13.50;60.90;;;;;;4990832;28;21059;-83
2023/05/04 02:05:08;;;;;;;1.77;1.67;;;13.50;61.30;;;;;;4987119;28;20464;-82
2023/05/04 02:07:35;;;;;;;1.93;1.67;;;13.50;61.40;;;;;;5005445;28;20454;-83
2023/05/04 02:10:07;;;;;;;1.93;1.60;;;13.50;61.00;;;;;;4990873;28;20562;-82
2023/05/04 02:12:34;;;;;;;1.90;1.40;;;13.40;60.70;;;;;;4989471;28;20552;-81
2023/05/04 02:15:01;;;;;;;3.67;1.50;;;13.30;61.30;;;;;;4992661;28;21884;-85
2023/05/04 02:17:28;;;;;;;1.83;1.73;;;13.30;61.60;;;;;;4988894;28;20447;-82
2023/05/04 02:19:54;;;;;;;1.40;1.30;;;13.20;62.20;;;;;;4989360;28;21365;-83
2023/05/04 02:22:22;;;;;;;1.33;1.23;;;13.20;62.40;;;;;;4990345;28;21222;-82
2023/05/04 02:24:50;;;;;;;1.67;1.47;;;13.40;62.00;;;;;;4991881;28;20458;-83
2023/05/04 02:27:17;;;;;;;1.90;1.80;;;13.40;61.40;;;;;;4994305;28;21077;-83
2023/05/04 02:29:44;;;;;;;1.50;1.40;;;13.40;61.60;;;;;;5002290;28;20477;-81
2023/05/04 02:32:14;;;;;;;1.23;1.17;;;13.40;61.20;;;;;;5005007;28;20450;-82
2023/05/04 02:34:41;;;;;;;2.00;1.80;;;13.30;61.50;;;;;;5002382;28;20552;-82
2023/05/04 02:37:07;;;;;;;1.90;1.80;;;13.30;61.90;;;;;;4998881;28;20533;-83
2023/05/04 02:39:35;;;;;;;2.20;1.73;;;13.20;62.10;;;;;;4996419;28;20625;-83
2023/05/04 02:42:03;;;;;;;1.50;1.40;;;13.20;63.20;;;;;;4999568;28;20476;-82
2023/05/04 02:44:29;;;;;;;3.80;2.00;;;13.10;63.60;;;;;;4995906;28;20456;-81
2023/05/04 02:46:56;;;;;;;1.90;1.53;;;13.10;63.60;;;;;;5000084;28;20466;-79
2023/05/04 02:49:24;;;;;;;1.80;1.70;;;13.00;64.10;;;;;;5003474;28;20842;-80
2023/05/04 02:51:50;;;;;;;1.70;1.60;;;13.00;64.00;;;;;;4996763;28;20471;-82
2023/05/04 02:54:17;;;;;;;1.80;1.70;;;13.00;64.10;;;;;;4998134;28;22369;-81
2023/05/04 02:56:45;;;;;;;1.70;1.60;;;13.00;64.00;;;;;;5001973;28;20457;-81
2023/05/04 02:59:12;;;;;;;4.30;2.07;;;13.00;63.90;;;;;;5004265;28;20454;-80
2023/05/04 03:01:39;;;;;;;1.60;1.50;;;12.90;63.90;;;;;;5022581;28;20458;-81
2023/05/04 03:04:06;;;;;;;2.03;1.80;;;13.00;64.40;;;;;;5005917;28;20462;-81
2023/05/04 03:06:33;;;;;;;1.80;1.70;;;13.00;63.80;;;;;;4996278;28;20454;-83
2023/05/04 03:09:00;;;;;;;5.47;2.17;;;13.00;64.00;;;;;;5010319;28;20466;-83
2023/05/04 03:11:28;;;;;;;3.43;1.60;;;12.80;64.00;;;;;;4999080;28;20490;-81
2023/05/04 03:13:55;;;;;;;1.70;1.60;;;12.80;64.20;;;;;;4999752;28;20904;-82
2023/05/04 03:16:22;;;;;;;1.80;1.70;;;12.70;63.90;;;;;;4997662;28;20482;-82
2023/05/04 03:18:50;;;;;;;2.27;2.07;;;12.60;64.40;;;;;;5000800;28;20443;-82
2023/05/04 03:21:18;;;;;;;3.40;1.60;;;12.70;65.20;;;;;;4998219;28;20540;-82
2023/05/04 03:23:45;;;;;;;2.17;1.80;;;12.70;65.10;;;;;;5002496;28;20465;-83
2023/05/04 03:26:12;;;;;;;1.53;1.43;;;12.60;65.10;;;;;;5012574;28;20446;-81
2023/05/04 03:28:40;;;;;;;2.00;1.83;;;12.70;65.10;;;;;;5016704;28;20446;-82
2023/05/04 03:31:07;;;;;;;1.50;1.40;;;12.70;65.00;;;;;;5017848;28;20538;-82
2023/05/04 03:33:34;;;;;;;2.83;1.67;;;12.80;65.10;;;;;;5015474;28;20514;-83
2023/05/04 03:36:01;;;;;;;2.40;2.27;;;12.80;65.10;;;;;;5024741;28;20461;-82
2023/05/04 03:38:28;;;;;;;3.43;1.60;;;12.80;64.80;;;;;;4999970;28;20459;-83
2023/05/04 03:40:55;;;;;;;1.60;1.50;;;12.70;65.20;;;;;;5000990;28;20996;-82
2023/05/04 03:43:22;;;;;;;1.90;1.80;;;12.60;65.60;;;;;;5009064;28;20463;-81
2023/05/04 03:45:48;;;;;;;1.80;1.70;;;12.60;66.00;;;;;;4999862;28;20475;-81
2023/05/04 03:48:15;;;;;;;1.53;1.23;;;12.60;66.30;;;;;;4998552;28;20480;-83
2023/05/04 03:50:43;;;;;;;1.97;1.87;;;12.60;66.20;;;;;;5002704;28;20489;-81
2023/05/04 03:53:10;;;;;;;2.30;1.90;;;12.50;66.40;;;;;;5003325;28;20499;-80
2023/05/04 03:55:37;;;;;;;2.40;2.00;;;12.50;66.40;;;;;;5002644;28;20447;-80
2023/05/04 03:58:06;;;;;;;3.40;1.80;;;12.40;66.70;;;;;;5003349;28;20458;-81
2023/05/04 04:00:33;;;;;;;2.10;1.80;;;12.30;67.20;;;;;;4999355;28;20483;-84
2023/05/04 04:03:00;;;;;;;4.40;2.07;;;12.30;67.30;;;;;;5004894;28;20459;-81
2023/05/04 04:05:27;;;;;;;1.70;1.60;;;12.20;67.60;;;;;;5004532;28;21103;-81
2023/05/04 04:07:54;;;;;;;2.07;1.90;;;12.20;67.90;;;;;;4989042;28;20451;-81
2023/05/04 04:10:22;;;;;;;1.90;1.80;;;12.00;68.50;;;;;;4993169;28;20486;-83
2023/05/04 04:12:49;;;;;;;1.63;1.53;;;12.00;68.90;;;;;;4989743;28;20472;-83
2023/05/04 04:15:16;;;;;;;2.30;2.10;;;12.00;69.20;;;;;;4993209;28;21303;-82
2023/05/04 04:17:43;;;;;;;1.67;1.57;;;12.00;69.40;;;;;;4991574;28;20473;-84
2023/05/04 04:20:11;;;;;;;2.63;1.97;;;12.00;69.80;;;;;;4989426;28;20524;-82
2023/05/04 04:22:38;;;;;;;1.97;1.87;;;12.10;69.80;;;;;;4987816;28;20461;-82
2023/05/04 04:25:06;;;;;;;1.50;1.40;;;12.10;69.70;;;;;;4986241;28;20540;-83
2023/05/04 04:27:33;;;;;;;1.70;1.60;;;12.20;70.20;;;;;;4986611;28;20861;-82
2023/05/04 04:30:01;;;;;;;2.03;1.67;;;12.10;70.10;;;;;;4989170;28;20478;-82
2023/05/04 04:32:28;;;;;;;3.20;1.70;;;12.20;70.70;;;;;;4988453;28;20468;-82
2023/05/04 04:34:55;;;;;;;2.50;2.13;;;12.30;70.50;;;;;;5000318;28;20482;-82
2023/05/04 04:37:23;;;;;;;2.80;1.90;;;12.30;70.10;;;;;;4988949;28;20466;-81
2023/05/04 04:39:50;;;;;;;4.03;2.60;;;12.30;69.90;;;;;;4991202;28;20565;-82
2023/05/04 04:42:17;;;;;;;4.40;2.17;;;12.40;70.40;;;;;;4992034;28;20544;-83
2023/05/04 04:44:44;;;;;;;2.60;2.10;;;12.60;69.60;;;;;;4992657;28;20545;-83
2023/05/04 04:47:15;;;;;;;3.20;1.70;;;12.60;68.70;;;;;;4987334;28;20465;-82
2023/05/04 04:49:42;;;;;;;6.13;2.80;;;12.50;69.00;;;;;;4987442;28;20499;-82
2023/05/04 04:52:09;;;;;;;4.10;2.70;;;12.60;69.60;;;;;;4988235;28;20485;-83
2023/05/04 04:54:37;;;;;;;4.30;2.23;;;12.50;69.60;;;;;;4988607;28;20485;-82
2023/05/04 04:57:04;;;;;;;2.60;2.27;;;12.60;70.10;;;;;;4991727;28;20945;-82
2023/05/04 04:59:32;;;;;;;5.30;2.10;;;12.50;70.00;;;;;;4989221;28;21301;-82
2023/05/04 05:01:59;;;;;;;5.27;2.30;;;12.50;69.70;;;;;;4984044;28;21260;-83
2023/05/04 05:04:26;;;;;;;4.87;3.10;;;12.50;69.60;;;;;;4987739;28;20652;-83
2023/05/04 05:06:53;;;;;;;2.50;1.93;;;12.60;68.90;;;;;;4994282;28;20458;-84
2023/05/04 05:09:20;;;;;;;2.60;2.00;;;12.60;68.80;;;;;;4995197;28;20632;-82
2023/05/04 05:11:47;;;;;;;2.60;2.13;;;12.50;68.40;;;;;;4990770;28;21014;-83
2023/05/04 05:14:14;;;;;;;2.23;2.13;;;12.30;69.10;;;;;;4988529;28;21183;-84
2023/05/04 05:16:41;;;;;;;3.90;2.10;;;12.40;69.50;;;;;;4988560;28;20499;-84
2023/05/04 05:19:09;;;;;;;2.63;1.70;;;12.40;69.70;;;;;;4986126;28;20531;-83
2023/05/04 05:21:37;;;;;;;2.77;2.07;;;12.40;69.30;;;;;;4995257;28;21565;-82
2023/05/04 05:24:04;;;;;;;7.73;2.37;;;12.70;70.10;;;;;;4995550;28;21374;-82
2023/05/04 05:26:32;;;;;;;4.00;2.73;;;12.90;69.00;;;;;;4995250;28;20455;-82
2023/05/04 05:28:59;;;;;;;2.77;1.97;;;12.70;68.60;;;;;;4989094;28;21076;-82
2023/05/04 05:31:26;;;;;;;5.93;2.43;;;12.50;69.10;;;;;;4986546;28;20482;-81
2023/05/04 05:33:53;;;;;;;7.00;2.00;;;12.60;69.60;;;;;;4989155;28;20483;-81
2023/05/04 05:36:21;;;;;;;3.83;2.70;;;12.50;69.10;;;;;;5003509;28;20992;-83
2023/05/04 05:38:51;;;;;;;2.60;2.20;;;12.40;69.70;;;;;;5001973;28;20462;-84
2023/05/04 05:41:18;;;;;;;2.77;2.30;;;12.40;70.30;;;;;;4996339;28;20474;-82
2023/05/04 05:43:45;;;;;;;3.73;2.30;;;12.60;70.10;;;;;;4987837;28;20479;-81
2023/05/04 05:46:12;;;;;;;3.20;2.30;;;12.90;70.30;;;;;;4985658;28;20485;-82
2023/05/04 05:48:39;;;;;;;5.30;2.40;;;13.10;69.50;;;;;;4983745;28;20708;-81
2023/05/04 05:51:06;;;;;;;2.60;2.40;;;13.10;69.40;;;;;;4987666;28;21386;-85
2023/05/04 05:53:32;;;;;;;4.50;2.17;;;13.00;69.10;;;;;;4987006;28;20479;-83
2023/05/04 05:55:59;;;;;;;2.80;2.10;;;13.20;69.50;;;;;;4988528;28;21168;-81
2023/05/04 05:58:26;;;;;;;2.00;1.80;;;13.10;68.80;;;;;;4989056;28;20467;-82
2023/05/04 06:00:53;;;;;;;2.10;2.00;;;13.10;69.10;;;;;;4987578;28;20489;-84
2023/05/04 06:03:21;;;;;;;2.30;2.20;;;13.20;68.60;;;;;;5001324;28;20590;-83
2023/05/04 06:05:48;;;;;;;3.03;1.90;;;13.20;68.00;;;;;;4988603;28;20468;-83
2023/05/04 06:08:15;;;;;;;2.47;2.00;;;13.20;68.00;;;;;;4986652;28;20465;-82
2023/05/04 06:10:41;;;;;;;2.50;1.87;;;13.20;67.90;;;;;;4988377;28;20496;-83
2023/05/04 06:13:10;;;;;;;1.90;1.80;;;13.30;67.90;;;;;;4989517;28;20550;-82
2023/05/04 06:15:38;;;;;;;3.60;2.43;;;13.40;67.40;;;;;;4987523;28;20494;-83
2023/05/04 06:18:05;;;;;;;2.10;1.77;;;13.50;66.70;;;;;;4987203;28;20466;-81
2023/05/04 06:20:32;;;;;;;2.80;2.60;;;13.60;66.70;;;;;;4985817;28;21262;-82
2023/05/04 06:22:59;;;;;;;3.17;2.00;;;13.80;66.60;;;;;;4988318;28;20466;-82
2023/05/04 06:25:27;;;;;;;2.63;2.43;;;14.30;64.90;;;;;;4987033;28;20467;-82
2023/05/04 06:27:54;;;;;;;3.13;1.97;;;14.80;63.30;;;;;;4986198;28;21391;-83
2023/05/04 06:30:23;;;;;;;2.07;1.87;;;14.90;62.00;;;;;;5318965;23;20487;-82
2023/05/04 06:33:16;;;;;;;2.17;2.00;;;14.60;62.30;;;;;;5000608;28;20476;-83
2023/05/04 06:35:52;;;;;;;2.57;2.37;;;14.50;63.30;;;;;;5003840;28;20497;-83
2023/05/04 06:38:30;;;;;;;5.63;2.30;;;14.50;64.20;;;;;;5000473;28;20608;-82
2023/05/04 06:41:05;;;;;;;2.70;2.37;;;14.40;63.70;;;;;;5029098;28;20472;-82
2023/05/04 06:43:42;;;;;;;1.80;1.70;;;14.30;64.30;;;;;;5030368;28;20498;-83
2023/05/04 06:46:18;;;;;;;2.37;2.17;;;14.40;64.30;;;;;;5023192;28;20453;-82
2023/05/04 06:48:53;;;;;;;3.63;2.27;;;14.30;64.30;;;;;;5014267;28;20537;-84
2023/05/04 06:51:36;;;;;;;4.00;2.17;;;14.30;64.90;;;;;;5009229;28;20484;-81
2023/05/04 06:54:16;;;;;;;2.37;2.20;;;14.50;64.90;;;;;;5008644;28;20489;-84
2023/05/04 06:56:46;;;;;;;2.70;2.37;;;14.60;64.60;;;;;;5009218;28;20468;-83
2023/05/04 06:59:23;;;;;;;3.93;2.30;;;14.70;64.60;;;;;;5009842;28;20476;-83
2023/05/04 07:01:59;;;;;;;2.03;1.87;;;14.80;64.10;;;;;;5008844;28;20460;-83
2023/05/04 07:04:31;;;;;;;2.30;1.83;;;14.90;64.20;;;;;;5007621;28;20569;-84
2023/05/04 07:07:06;;;;;;;3.13;2.10;;;15.30;63.40;;;;;;5024832;28;20948;-80
2023/05/04 07:09:52;;;;;;;2.40;2.20;;;15.50;63.00;;;;;;5012072;28;20610;-81
2023/05/04 07:12:25;;;;;;;2.90;2.30;;;15.80;61.50;;;;;;5018509;28;20500;-84
2023/05/04 07:14:59;;;;;;;2.23;2.00;;;16.00;61.30;;;;;;5013259;28;20613;-82
2023/05/04 07:17:49;;;;;;;2.10;1.90;;;15.90;60.70;;;;;;5018928;28;20464;-83
2023/05/04 07:20:22;;;;;;;2.10;2.00;;;16.50;59.30;;;;;;5013675;28;20611;-83
2023/05/04 07:23:06;;;;;;;3.53;1.90;;;16.70;59.10;;;;;;5024607;28;20551;-83
2023/05/04 07:25:39;;;;;;;2.40;2.20;;;16.90;58.40;;;;;;5023169;28;21279;-82
2023/05/04 07:28:06;;;;;;;2.33;1.93;;;17.50;57.80;;;;;;5024547;28;20450;-82
2023/05/04 07:30:41;;;;;;;2.40;2.20;;;17.80;57.00;;;;;;5022633;28;20980;-82
2023/05/04 07:33:29;;;;;;;2.73;2.23;;;18.20;56.50;;;;;;5018954;28;20465;-81
2023/05/04 07:36:22;;;;;;;2.43;2.23;;;19.20;55.10;;;;;;5019743;28;20460;-82
2023/05/04 07:39:06;;;;;;;3.37;2.40;;;20.50;52.80;;;;;;5014580;28;20454;-83
2023/05/04 07:41:51;;;;;;;2.13;2.03;;;21.60;50.10;;;;;;5010515;28;20672;-82
2023/05/04 07:44:41;;;;;;;3.47;3.17;;;22.70;48.20;;;;;;5028264;28;20489;-82
2023/05/04 07:47:25;;;;;;;2.60;2.40;;;23.60;46.30;;;;;;5017320;28;20464;-83
2023/05/04 07:49:58;;;;;;;2.10;2.00;;;23.60;45.90;;;;;;5025190;28;20479;-83
2023/05/04 07:52:44;;;;;;;2.17;1.97;;;24.50;44.30;;;;;;5026668;28;20835;-82
2023/05/04 07:55:14;;;;;;;3.20;2.17;;;24.40;44.50;;;;;;5026691;28;20857;-81
2023/05/04 07:57:47;;;;;;;2.47;2.27;;;24.80;43.60;;;;;;5022511;28;20465;-82
2023/05/04 08:00:28;;;;;;;2.57;2.07;;;25.50;42.70;;;;;;5006191;28;20507;-83
2023/05/04 08:06:03;;;;;;;3.00;2.30;;;25.90;41.40;;;;;;5021442;28;20972;-82
2023/05/04 08:08:51;;;;;;;2.00;1.90;;;25.80;41.20;;;;;;5005600;28;20467;-84
2023/05/04 08:11:36;;;;;;;2.27;2.17;;;26.10;41.10;;;;;;5000596;28;21649;-83
2023/05/04 08:14:20;;;;;;;2.97;2.00;;;26.10;40.60;;;;;;4992676;28;20481;-82
2023/05/04 08:20:01;;;;;;;2.63;2.40;;;27.10;39.30;;;;;;5011519;28;20480;-83
2023/05/04 08:22:38;;;;;;;2.40;2.20;;;27.20;38.60;;;;;;5018819;28;20457;-81
2023/05/04 08:25:21;;;;;;;2.30;2.13;;;26.40;39.30;;;;;;5017827;28;20489;-81
2023/05/04 08:27:49;;;;;;;2.50;2.20;;;26.00;40.20;;;;;;5033573;28;20507;-82
2023/05/04 08:30:19;;;;;;;2.90;2.40;;;26.10;40.40;;;;;;5036821;28;20481;-82
2023/05/04 08:32:54;;;;;;;2.07;1.97;;;26.60;40.00;;;;;;5030302;28;20469;-82
2023/05/04 08:35:32;;;;;;;2.57;2.37;;;27.50;39.20;;;;;;5022435;28;20479;-83
2023/05/04 08:38:05;;;;;;;2.77;2.57;;;27.80;38.20;;;;;;5030757;28;20534;-82
2023/05/04 08:40:33;;;;;;;2.70;2.50;;;27.80;38.30;;;;;;5023726;28;20496;-83
2023/05/04 08:43:10;;;;;;;2.70;2.50;;;28.00;37.70;;;;;;5018522;28;20484;-82
2023/05/04 08:45:48;;;;;;;2.43;2.27;;;27.60;38.10;;;;;;5015115;28;20484;-83
2023/05/04 08:48:25;;;;;;;4.70;2.53;;;27.70;38.00;;;;;;5027953;28;20473;-84
2023/05/04 08:50:52;;;;;;;3.77;3.00;;;27.70;38.10;;;;;;5023354;28;20495;-83
2023/05/04 08:53:21;;;;;;;3.80;2.67;;;27.40;38.60;;;;;;5020101;28;20469;-83
2023/05/04 08:55:50;;;;;;;3.10;2.80;;;26.90;39.30;;;;;;5027257;28;20488;-81
2023/05/04 08:58:19;;;;;;;3.30;3.00;;;26.60;40.00;;;;;;5029410;28;20437;-82
2023/05/04 09:00:46;;;;;;;4.90;2.80;;;27.20;39.60;;;;;;5017911;28;20476;-83
2023/05/04 09:03:14;;;;;;;2.73;2.53;;;27.50;39.40;;;;;;5020732;28;20852;-81
2023/05/04 09:05:43;;;;;;;2.90;2.60;;;27.10;39.20;;;;;;5016305;28;20525;-83
2023/05/04 09:08:10;;;;;;;3.90;3.50;;;26.80;39.90;;;;;;5016423;28;20459;-81
2023/05/04 09:10:37;;;;;;;3.20;3.00;;;26.60;40.20;;;;;;5012090;28;20472;-82
2023/05/04 09:13:04;;;;;;;3.50;2.90;;;26.90;40.00;;;;;;5028628;28;20453;-83
2023/05/04 09:15:31;;;;;;;3.77;3.23;;;26.90;39.80;;;;;;5027491;28;20500;-83
2023/05/04 09:18:08;;;;;;;3.10;2.90;;;26.60;40.10;;;;;;5012369;28;20467;-85
2023/05/04 09:20:46;;;;;;;4.60;2.97;;;26.70;40.30;;;;;;5028024;28;22440;-85
2023/05/04 09:23:15;;;;;;;4.20;2.47;;;26.80;40.20;;;;;;5018468;28;20461;-84
2023/05/04 09:25:48;;;;;;;3.73;3.23;;;26.90;40.60;;;;;;5024927;28;20491;-83
2023/05/04 09:28:17;;;;;;;3.10;2.80;;;26.70;40.20;;;;;;5022395;28;20460;-83
2023/05/04 09:30:45;;;;;;;2.80;2.60;;;26.50;40.70;;;;;;5019655;28;20464;-82
2023/05/04 09:33:12;;;;;;;2.50;2.30;;;26.50;40.90;;;;;;5023011;28;20584;-83
2023/05/04 09:35:40;;;;;;;3.33;3.03;;;25.80;41.40;;;;;;5013207;28;20572;-81
2023/05/04 09:38:08;;;;;;;3.20;2.90;;;26.10;41.80;;;;;;5020189;28;20456;-83
2023/05/04 09:40:40;;;;;;;3.57;3.27;;;26.10;41.60;;;;;;5015158;28;20487;-84
2023/05/04 09:43:08;;;;;;;3.73;3.13;;;25.90;42.10;;;;;;5027028;28;20422;-81
2023/05/04 09:45:43;;;;;;;3.23;2.97;;;26.00;42.00;;;;;;5040284;28;20453;-83
2023/05/04 09:48:20;;;;;;;2.90;2.70;;;25.70;42.50;;;;;;5035671;28;20456;-83
2023/05/04 09:50:51;;;;;;;3.17;2.87;;;25.70;43.00;;;;;;5035707;28;20919;-82
2023/05/04 09:53:26;;;;;;;2.90;2.70;;;25.40;43.50;;;;;;5038529;28;20510;-81
2023/05/04 09:56:08;;;;;;;4.60;2.57;;;26.20;42.20;;;;;;5039850;28;20453;-81
2023/05/04 09:58:35;;;;;;;2.87;2.67;;;26.60;41.80;;;;;;5028457;28;20459;-81
2023/05/04 10:01:03;;;;;;;3.50;2.80;;;26.40;41.60;;;;;;5045208;28;20635;-81
2023/05/04 10:03:31;;;;;;;3.00;2.80;;;26.50;41.70;;;;;;5031250;28;20470;-81
2023/05/04 10:06:01;;;;;;;3.80;3.10;;;27.00;41.00;;;;;;5034568;28;20449;-82
2023/05/04 10:08:30;;;;;;;3.10;2.90;;;27.00;40.80;;;;;;5018281;28;20469;-83
2023/05/04 10:10:57;;;;;;;3.53;3.23;;;26.50;41.50;;;;;;5027800;28;20480;-82
2023/05/04 10:13:25;;;;;;;3.73;3.43;;;25.80;42.50;;;;;;5018713;28;20763;-83
2023/05/04 10:16:13;;;;;;;3.80;3.30;;;26.20;42.30;;;;;;5020991;28;20480;-83
2023/05/04 10:18:43;;;;;;;3.40;3.10;;;26.30;42.10;;;;;;5028662;28;20453;-83
2023/05/04 10:21:52;;;;;;;3.37;3.07;;;27.00;41.10;;;;;;5031017;28;20506;-83
2023/05/04 10:24:43;;;;;;;2.90;2.70;;;26.70;40.90;;;;;;5046714;28;20480;-83
2023/05/04 10:27:35;;;;;;;3.20;2.90;;;26.60;41.10;;;;;;5048659;28;20512;-82
2023/05/04 10:30:06;;;;;;;3.00;2.80;;;27.00;40.60;;;;;;5050087;28;20457;-81
2023/05/04 10:32:38;;;;;;;2.90;2.70;;;27.40;40.10;;;;;;5059300;28;20455;-81
2023/05/04 10:35:07;;;;;;;2.73;2.53;;;27.80;39.10;;;;;;5045469;28;20514;-82
2023/05/04 10:37:38;;;;;;;2.73;2.50;;;27.40;38.70;;;;;;5053769;28;20457;-83
2023/05/04 10:40:06;;;;;;;3.03;2.83;;;27.20;39.00;;;;;;5057098;28;20465;-81
2023/05/04 10:42:43;;;;;;;3.43;3.20;;;27.30;39.20;;;;;;5045319;28;20524;-82
2023/05/04 10:45:13;;;;;;;2.47;2.27;;;27.10;38.60;;;;;;5054204;28;20452;-82
2023/05/04 10:47:42;;;;;;;2.30;2.20;;;26.70;38.90;;;;;;5041819;28;20454;-82
2023/05/04 10:50:13;;;;;;;2.90;2.43;;;26.70;39.40;;;;;;5034798;28;20481;-85
2023/05/04 10:52:47;;;;;;;2.53;2.33;;;26.70;39.50;;;;;;5042216;28;20468;-82
2023/05/04 10:55:15;;;;;;;3.37;2.30;;;26.90;39.90;;;;;;5042910;28;20547;-83
2023/05/04 10:57:52;;;;;;;2.47;2.27;;;27.10;38.80;;;;;;5039208;28;20512;-84
2023/05/04 11:00:20;;;;;;;3.90;2.70;;;26.70;38.30;;;;;;5053125;28;20475;-83
2023/05/04 11:02:48;;;;;;;2.67;2.47;;;27.00;37.70;;;;;;5040618;28;20457;-84
2023/05/04 11:05:18;;;;;;;2.57;2.37;;;27.50;37.50;;;;;;5034597;28;20488;-83
2023/05/04 11:07:51;;;;;;;2.20;2.10;;;27.50;36.90;;;;;;5047599;28;20456;-83
2023/05/04 11:10:23;;;;;;;2.43;2.30;;;27.10;37.10;;;;;;5041528;28;20485;-81
2023/05/04 11:12:51;;;;;;;2.27;2.07;;;26.80;37.50;;;;;;5043109;28;20453;-83
2023/05/04 11:15:20;;;;;;;2.40;2.20;;;26.50;37.70;;;;;;5004836;28;20508;-82
2023/05/04 11:17:50;;;;;;;2.37;2.13;;;26.80;37.00;;;;;;5023777;28;20487;-83
2023/05/04 11:20:27;;;;;;;3.17;2.10;;;26.80;37.00;;;;;;5036624;28;20473;-83
2023/05/04 11:23:01;;;;;;;2.20;2.10;;;27.10;37.10;;;;;;5034889;28;20464;-83
2023/05/04 11:25:32;;;;;;;2.10;2.00;;;26.60;38.10;;;;;;5039924;28;20457;-82
2023/05/04 11:28:03;;;;;;;1.93;1.83;;;26.70;37.60;;;;;;5024829;28;20532;-83
2023/05/04 11:30:44;;;;;;;2.27;2.07;;;26.70;36.70;;;;;;5040437;28;20469;-84
2023/05/04 11:33:16;;;;;;;2.00;1.90;;;27.10;36.10;;;;;;5026417;28;20453;-82
2023/05/04 11:35:46;;;;;;;2.07;1.87;;;27.00;36.10;;;;;;5027434;28;20488;-81
2023/05/04 11:38:20;;;;;;;2.40;2.20;;;26.70;36.30;;;;;;5042713;28;21032;-83
2023/05/04 11:40:54;;;;;;;1.77;1.67;;;26.90;36.60;;;;;;5024995;28;20472;-84
2023/05/04 11:43:57;;;;;;;;;;;;;;;;;;;;;
2023/05/04 11:46:55;;;;;;;2.30;2.20;;;27.00;37.30;;;;;;5037112;28;20570;-85
2023/05/04 11:49:50;;;;;;;2.60;2.00;;;27.00;36.50;;;;;;5025117;28;20480;-82
2023/05/04 11:53:11;;;;;;;2.30;1.97;;;27.50;35.60;;;;;;5025647;28;20458;-82
2023/05/04 11:55:46;;;;;;;2.03;1.93;;;27.40;35.20;;;;;;5025855;28;20464;-83
2023/05/04 11:58:57;;;;;;;2.63;2.30;;;27.20;35.60;;;;;;5031326;28;20504;-84
2023/05/04 12:02:25;;;;;;;2.40;2.20;;;27.50;35.60;;;;;;5034351;28;20501;-83
2023/05/04 12:05:39;;;;;;;4.10;2.00;;;26.80;35.80;;;;;;4998686;28;20475;-82
2023/05/04 12:08:30;;;;;;;2.70;2.20;;;26.90;35.40;;;;;;5017864;28;21047;-83
2023/05/04 12:11:30;;;;;;;2.90;2.70;;;27.10;35.80;;;;;;5018123;28;20489;-83
2023/05/04 12:18:28;;;;;;;2.90;2.50;;;27.50;34.80;;;;;;5030087;28;20529;-84
2023/05/04 12:21:34;;;;;;;2.20;2.00;;;27.30;35.30;;;;;;5010791;28;20481;-84
2023/05/04 12:24:47;;;;;;;2.20;2.00;;;27.40;35.20;;;;;;5022801;28;21935;-83
2023/05/04 12:27:41;;;;;;;2.23;2.13;;;27.40;35.20;;;;;;5015989;28;20456;-83
2023/05/04 12:30:32;;;;;;;2.50;2.30;;;27.20;34.70;;;;;;5027931;28;20483;-82
2023/05/04 12:33:31;;;;;;;2.40;2.20;;;27.00;34.70;;;;;;5018840;28;21210;-83
2023/05/04 12:36:10;;;;;;;2.10;2.00;;;26.70;35.20;;;;;;5016374;28;20478;-82
2023/05/04 12:38:54;;;;;;;1.97;1.87;;;26.40;35.80;;;;;;5017618;28;20487;-82
2023/05/04 12:41:45;;;;;;;2.90;2.60;;;27.00;35.40;;;;;;5000154;28;20479;-83
2023/05/04 12:44:18;;;;;;;3.20;2.37;;;27.00;35.40;;;;;;5038518;28;20537;-82
2023/05/04 12:46:47;;;;;;;2.27;2.07;;;27.30;35.10;;;;;;5017356;28;20460;-82
2023/05/04 12:49:21;;;;;;;2.20;2.10;;;27.30;35.40;;;;;;5025315;28;21231;-82
2023/05/04 12:51:57;;;;;;;2.20;2.10;;;26.90;35.80;;;;;;5025643;28;20549;-82
2023/05/04 12:54:34;;;;;;;2.30;2.10;;;27.50;35.70;;;;;;5011218;28;20583;-82
2023/05/04 12:57:11;;;;;;;2.60;2.00;;;27.50;35.10;;;;;;5024631;28;20782;-82
2023/05/04 12:59:52;;;;;;;2.47;2.27;;;27.40;35.10;;;;;;5007404;28;20510;-82
2023/05/04 13:02:20;;;;;;;2.47;2.27;;;27.30;35.20;;;;;;5011359;28;20479;-82
2023/05/04 13:04:48;;;;;;;2.47;1.90;;;27.20;34.80;;;;;;5015958;28;20445;-84
2023/05/04 13:07:17;;;;;;;2.50;2.30;;;27.50;34.90;;;;;;5026220;28;20560;-83
2023/05/04 13:09:49;;;;;;;2.37;2.10;;;27.10;34.80;;;;;;5017870;28;20484;-83
2023/05/04 13:12:19;;;;;;;2.17;2.07;;;27.20;35.10;;;;;;5026327;28;20489;-83
2023/05/04 13:14:56;;;;;;;2.00;1.90;;;27.50;35.00;;;;;;5031179;28;20476;-84
2023/05/04 13:17:26;;;;;;;2.40;2.20;;;27.70;34.60;;;;;;5028314;28;20487;-85
2023/05/04 13:19:55;;;;;;;2.60;1.93;;;27.80;34.90;;;;;;5009757;28;20583;-83
2023/05/04 13:22:23;;;;;;;2.27;1.90;;;27.10;34.80;;;;;;4993316;28;20784;-83
2023/05/04 13:24:58;;;;;;;2.40;2.20;;;27.40;34.70;;;;;;5021580;28;20461;-82